createdAt,value
2023-05-02T00:01:55.281Z,12.30
2023-05-02T00:04:41.286Z,12.30
2023-05-02T00:07:26.808Z,12.30
2023-05-02T00:10:12.461Z,12.30
2023-05-02T00:12:57.853Z,12.30
2023-05-02T00:15:43.246Z,12.30
2023-05-02T00:18:28.750Z,12.30
2023-05-02T00:21:14.144Z,12.30
2023-05-02T00:24:00.125Z,12.20
2023-05-02T00:26:46.197Z,12.20
2023-05-02T00:29:31.681Z,12.10
2023-05-02T00:32:17.130Z,12.00
2023-05-02T00:35:02.242Z,12.00
2023-05-02T00:37:47.649Z,12.00
2023-05-02T00:40:43.736Z,12.00
2023-05-02T00:43:31.444Z,12.00
2023-05-02T00:46:16.897Z,12.00
2023-05-02T00:49:02.106Z,12.00
2023-05-02T00:51:47.773Z,12.00
2023-05-02T00:54:33.183Z,12.10
2023-05-02T00:57:18.418Z,12.10
2023-05-02T01:00:05.078Z,12.00
2023-05-02T01:03:09.492Z,12.10
2023-05-02T01:06:17.806Z,12.10
2023-05-02T01:09:22.127Z,12.10
2023-05-02T01:12:27.991Z,12.10
2023-05-02T01:15:18.360Z,12.00
2023-05-02T01:18:05.650Z,11.90
2023-05-02T01:21:00.538Z,11.90
2023-05-02T01:23:57.498Z,12.00
2023-05-02T01:27:11.561Z,12.00
2023-05-02T01:29:59.237Z,11.90
2023-05-02T01:32:48.486Z,11.90
2023-05-02T01:35:35.639Z,11.90
2023-05-02T01:38:22.758Z,11.90
2023-05-02T01:41:09.003Z,11.80
2023-05-02T01:43:57.745Z,11.90
2023-05-02T01:46:44.569Z,11.80
2023-05-02T01:49:31.796Z,11.80
2023-05-02T01:52:21.703Z,11.70
2023-05-02T01:55:12.135Z,11.70
2023-05-02T01:57:57.849Z,11.70
2023-05-02T02:00:45.544Z,11.70
2023-05-02T02:03:32.059Z,11.70
2023-05-02T02:06:19.176Z,11.60
2023-05-02T02:09:04.914Z,11.60
2023-05-02T02:11:57.533Z,11.70
2023-05-02T02:14:49.815Z,11.70
2023-05-02T02:17:43.247Z,11.70
2023-05-02T02:20:30.081Z,11.70
2023-05-02T02:23:16.501Z,11.70
2023-05-02T02:26:04.187Z,11.70
2023-05-02T02:28:49.501Z,11.70
2023-05-02T02:31:36.019Z,11.70
2023-05-02T02:34:22.113Z,11.60
2023-05-02T02:37:23.491Z,11.60
2023-05-02T02:40:16.604Z,11.60
2023-05-02T02:43:32.474Z,11.60
2023-05-02T02:46:45.119Z,11.60
2023-05-02T02:49:34.470Z,11.50
2023-05-02T02:52:42.107Z,11.50
2023-05-02T02:55:55.776Z,11.40
2023-05-02T02:59:18.634Z,11.50
2023-05-02T03:02:09.280Z,11.50
2023-05-02T03:04:56.140Z,11.40
2023-05-02T03:07:42.034Z,11.40
2023-05-02T03:10:27.197Z,11.40
2023-05-02T03:13:12.648Z,11.40
2023-05-02T03:16:29.112Z,11.40
2023-05-02T03:19:14.586Z,11.40
2023-05-02T03:22:00.236Z,11.40
2023-05-02T03:24:45.394Z,11.40
2023-05-02T03:27:31.915Z,11.40
2023-05-02T03:30:17.226Z,11.40
2023-05-02T03:33:04.749Z,11.30
2023-05-02T03:35:50.002Z,11.40
2023-05-02T03:38:35.634Z,11.40
2023-05-02T03:41:21.240Z,11.40
2023-05-02T03:44:06.639Z,11.40
2023-05-02T03:46:51.840Z,11.40
2023-05-02T03:49:38.047Z,11.30
2023-05-02T03:52:23.586Z,11.30
2023-05-02T03:55:09.115Z,11.30
2023-05-02T03:57:54.429Z,11.30
2023-05-02T04:00:39.992Z,11.40
2023-05-02T04:03:27.141Z,11.30
2023-05-02T04:06:14.096Z,11.40
2023-05-02T04:08:59.594Z,11.30
2023-05-02T04:11:44.760Z,11.30
2023-05-02T04:14:30.756Z,11.30
2023-05-02T04:17:16.088Z,11.30
2023-05-02T04:20:04.713Z,11.40
2023-05-02T04:22:50.748Z,11.30
2023-05-02T04:25:36.113Z,11.30
2023-05-02T04:28:22.158Z,11.30
2023-05-02T04:31:07.495Z,11.30
2023-05-02T04:33:52.792Z,11.40
2023-05-02T04:36:38.662Z,11.30
2023-05-02T04:39:23.668Z,11.30
2023-05-02T04:42:09.230Z,11.40
2023-05-02T04:44:54.727Z,11.40
2023-05-02T04:47:40.171Z,11.40
2023-05-02T04:50:25.993Z,11.30
2023-05-02T04:53:11.255Z,11.40
2023-05-02T04:55:57.066Z,11.40
2023-05-02T04:58:42.459Z,11.50
2023-05-02T05:01:28.207Z,11.60
2023-05-02T05:04:13.821Z,11.70
2023-05-02T05:06:59.669Z,11.70
2023-05-02T05:09:44.906Z,11.80
2023-05-02T05:12:30.309Z,11.90
2023-05-02T05:15:16.878Z,12.00
2023-05-02T05:18:02.480Z,12.00
2023-05-02T05:20:47.816Z,12.10
2023-05-02T05:23:34.217Z,12.10
2023-05-02T05:26:20.995Z,12.10
2023-05-02T05:29:05.909Z,12.10
2023-05-02T05:31:51.244Z,12.10
2023-05-02T05:34:37.633Z,12.00
2023-05-02T05:37:23.008Z,12.10
2023-05-02T05:40:09.237Z,12.10
2023-05-02T05:42:54.321Z,12.20
2023-05-02T05:45:39.785Z,12.20
2023-05-02T05:48:25.452Z,12.20
2023-05-02T05:51:10.716Z,12.30
2023-05-02T05:53:56.183Z,12.30
2023-05-02T05:56:41.457Z,12.20
2023-05-02T05:59:27.490Z,12.30
2023-05-02T06:02:13.017Z,12.40
2023-05-02T06:04:58.058Z,12.30
2023-05-02T06:07:43.444Z,12.20
2023-05-02T06:10:28.806Z,12.20
2023-05-02T06:13:14.088Z,12.30
2023-05-02T06:16:02.948Z,12.30
2023-05-02T06:18:51.651Z,12.30
2023-05-02T06:21:37.909Z,12.30
2023-05-02T06:24:23.156Z,12.40
2023-05-02T06:27:08.669Z,12.50
2023-05-02T06:29:54.304Z,12.50
2023-05-02T06:32:39.670Z,12.60
2023-05-02T06:35:25.004Z,12.60
2023-05-02T06:38:10.489Z,12.70
2023-05-02T06:40:56.355Z,12.60
2023-05-02T06:43:41.989Z,12.60
2023-05-02T06:46:30.249Z,12.70
2023-05-02T06:49:15.350Z,12.70
2023-05-02T06:52:00.878Z,12.80
2023-05-02T06:54:46.227Z,12.60
2023-05-02T06:57:31.753Z,12.70
2023-05-02T07:00:18.139Z,12.80
2023-05-02T07:03:03.835Z,12.90
2023-05-02T07:05:49.179Z,12.90
2023-05-02T07:08:34.488Z,12.90
2023-05-02T07:11:21.719Z,12.90
2023-05-02T07:14:07.279Z,13.00
2023-05-02T07:16:53.689Z,12.90
2023-05-02T07:19:39.140Z,13.00
2023-05-02T07:22:24.435Z,13.10
2023-05-02T07:25:10.317Z,13.00
2023-05-02T07:27:55.486Z,13.10
2023-05-02T07:30:40.857Z,13.00
2023-05-02T07:33:26.390Z,13.10
2023-05-02T07:36:11.777Z,13.00
2023-05-02T07:38:57.265Z,13.10
2023-05-02T07:41:42.914Z,13.00
2023-05-02T07:44:28.318Z,13.00
2023-05-02T07:47:13.759Z,13.00
2023-05-02T07:49:59.424Z,13.20
2023-05-02T07:52:45.156Z,13.20
2023-05-02T07:55:33.146Z,13.20
2023-05-02T07:58:18.643Z,13.20
2023-05-02T08:01:04.124Z,13.30
2023-05-02T08:03:49.791Z,13.30
2023-05-02T08:06:35.743Z,13.20
2023-05-02T08:09:21.351Z,13.10
2023-05-02T08:12:06.986Z,13.00
2023-05-02T08:14:52.440Z,13.00
2023-05-02T08:17:37.957Z,13.00
2023-05-02T08:20:23.575Z,13.00
2023-05-02T08:23:08.787Z,13.10
2023-05-02T08:25:54.486Z,13.20
2023-05-02T08:28:39.657Z,13.10
2023-05-02T08:31:25.074Z,13.10
2023-05-02T08:34:10.522Z,13.20
2023-05-02T08:36:58.268Z,13.30
2023-05-02T08:39:43.888Z,13.40
2023-05-02T08:42:32.423Z,13.40
2023-05-02T08:45:18.970Z,13.40
2023-05-02T08:48:10.338Z,13.60
2023-05-02T08:50:56.195Z,13.70
2023-05-02T08:53:42.387Z,13.60
2023-05-02T08:56:27.656Z,13.80
2023-05-02T08:59:12.989Z,13.80
2023-05-02T09:02:10.376Z,13.90
2023-05-02T09:04:59.445Z,14.00
2023-05-02T09:07:47.322Z,14.00
2023-05-02T09:10:36.496Z,14.20
2023-05-02T09:13:29.364Z,14.00
2023-05-02T09:16:25.470Z,14.20
2023-05-02T09:19:11.166Z,14.00
2023-05-02T09:22:03.638Z,14.10
2023-05-02T09:24:54.057Z,14.30
2023-05-02T09:27:56.314Z,14.50
2023-05-02T09:30:41.686Z,14.80
2023-05-02T09:33:27.893Z,14.90
2023-05-02T09:36:15.252Z,14.90
2023-05-02T09:39:10.683Z,15.10
2023-05-02T09:41:56.617Z,15.30
2023-05-02T09:44:43.043Z,15.50
2023-05-02T09:47:28.526Z,15.50
2023-05-02T09:50:36.236Z,15.60
2023-05-02T09:53:22.036Z,15.50
2023-05-02T09:56:08.127Z,15.60
2023-05-02T09:59:13.680Z,15.70
2023-05-02T10:02:01.126Z,16.00
2023-05-02T10:04:48.978Z,16.30
2023-05-02T10:07:34.944Z,16.50
2023-05-02T10:10:20.474Z,16.50
2023-05-02T10:13:06.792Z,16.90
2023-05-02T10:15:59.544Z,17.20
2023-05-02T10:19:02.653Z,17.50
2023-05-02T10:21:48.033Z,17.40
2023-05-02T10:24:33.732Z,17.40
2023-05-02T10:27:19.519Z,17.20
2023-05-02T10:30:06.477Z,17.50
2023-05-02T10:32:53.642Z,17.70
2023-05-02T10:35:43.665Z,18.00
2023-05-02T10:38:29.521Z,18.00
2023-05-02T10:41:19.182Z,18.20
2023-05-02T10:44:07.800Z,18.60
2023-05-02T10:46:53.892Z,18.60
2023-05-02T10:49:56.831Z,18.80
2023-05-02T10:52:41.853Z,19.30
2023-05-02T10:55:27.154Z,19.60
2023-05-02T10:58:22.335Z,19.30
2023-05-02T11:01:29.311Z,18.90
2023-05-02T11:04:14.817Z,18.70
2023-05-02T11:07:17.170Z,18.60
2023-05-02T11:10:17.858Z,18.50
2023-05-02T11:13:03.294Z,18.50
2023-05-02T11:15:51.595Z,18.30
2023-05-02T11:18:59.377Z,18.30
2023-05-02T11:21:44.494Z,18.30
2023-05-02T11:24:40.555Z,18.10
2023-05-02T11:27:32.042Z,18.00
2023-05-02T11:30:37.635Z,18.00
2023-05-02T11:33:23.438Z,18.00
2023-05-02T11:36:08.826Z,17.90
2023-05-02T11:38:54.293Z,18.30
2023-05-02T11:41:43.356Z,18.40
2023-05-02T11:44:28.479Z,18.20
2023-05-02T11:47:13.916Z,18.20
2023-05-02T11:50:02.110Z,18.10
2023-05-02T11:52:47.456Z,18.60
2023-05-02T11:55:32.863Z,19.10
2023-05-02T11:58:23.516Z,19.60
2023-05-02T12:01:16.339Z,19.90
2023-05-02T12:04:10.488Z,20.50
2023-05-02T12:06:57.267Z,20.90
2023-05-02T12:09:53.493Z,21.10
2023-05-02T12:12:40.955Z,20.90
2023-05-02T12:15:26.672Z,20.50
2023-05-02T12:18:13.577Z,20.20
2023-05-02T12:20:58.766Z,19.90
2023-05-02T12:23:44.531Z,19.90
2023-05-02T12:26:33.055Z,19.80
2023-05-02T12:29:18.789Z,19.60
2023-05-02T12:32:04.574Z,20.00
2023-05-02T12:34:50.068Z,20.40
2023-05-02T12:37:35.775Z,20.40
2023-05-02T12:40:21.081Z,20.30
2023-05-02T12:43:10.376Z,20.10
2023-05-02T12:46:11.208Z,20.00
2023-05-02T12:49:05.772Z,20.00
2023-05-02T12:52:02.496Z,20.20
2023-05-02T12:54:48.501Z,20.80
2023-05-02T12:57:34.234Z,21.10
2023-05-02T13:00:20.151Z,21.30
2023-05-02T13:03:06.886Z,21.20
2023-05-02T13:05:55.443Z,21.40
2023-05-02T13:08:40.438Z,21.20
2023-05-02T13:11:25.803Z,21.40
2023-05-02T13:14:11.548Z,21.40
2023-05-02T13:16:57.472Z,21.40
2023-05-02T13:20:01.081Z,21.60
2023-05-02T13:22:47.549Z,21.90
2023-05-02T13:25:33.016Z,22.20
2023-05-02T13:28:19.031Z,22.10
2023-05-02T13:31:04.552Z,22.20
2023-05-02T13:33:49.905Z,22.30
2023-05-02T13:36:36.349Z,22.40
2023-05-02T13:39:21.982Z,22.40
2023-05-02T13:42:07.967Z,22.40
2023-05-02T13:44:52.893Z,22.40
2023-05-02T13:47:39.441Z,22.10
2023-05-02T13:50:25.288Z,22.00
2023-05-02T13:53:11.246Z,21.80
2023-05-02T13:55:57.696Z,21.70
2023-05-02T13:58:43.044Z,21.80
2023-05-02T14:01:28.662Z,21.80
2023-05-02T14:04:14.371Z,22.10
2023-05-02T14:06:59.585Z,22.00
2023-05-02T14:09:45.085Z,22.10
2023-05-02T14:12:31.592Z,22.10
2023-05-02T14:15:16.837Z,22.10
2023-05-02T14:18:02.353Z,22.10
2023-05-02T14:20:47.575Z,21.80
2023-05-02T14:23:33.506Z,21.70
2023-05-02T14:26:20.366Z,21.80
2023-05-02T14:29:05.738Z,21.90
2023-05-02T14:31:51.166Z,21.60
2023-05-02T14:34:36.298Z,21.90
2023-05-02T14:37:21.787Z,22.00
2023-05-02T14:40:07.964Z,22.40
2023-05-02T14:42:53.039Z,22.40
2023-05-02T14:45:38.580Z,22.50
2023-05-02T14:48:23.932Z,22.60
2023-05-02T14:51:09.404Z,22.30
2023-05-02T14:53:54.702Z,22.00
2023-05-02T14:56:40.189Z,22.40
2023-05-02T14:59:29.142Z,22.50
2023-05-02T15:02:14.449Z,22.80
2023-05-02T15:05:00.259Z,22.90
2023-05-02T15:07:45.481Z,22.80
2023-05-02T15:10:30.794Z,22.80
2023-05-02T15:13:16.160Z,22.50
2023-05-02T15:16:01.550Z,22.30
2023-05-02T15:18:47.070Z,22.10
2023-05-02T15:21:32.786Z,21.90
2023-05-02T15:24:17.824Z,22.00
2023-05-02T15:27:03.684Z,21.90
2023-05-02T15:29:49.118Z,21.80
2023-05-02T15:32:34.747Z,21.60
2023-05-02T15:35:20.237Z,21.50
2023-05-02T15:38:06.577Z,21.40
2023-05-02T15:40:59.397Z,21.30
2023-05-02T15:43:44.904Z,21.10
2023-05-02T15:46:30.251Z,21.00
2023-05-02T15:49:15.856Z,20.80
2023-05-02T15:52:00.991Z,20.60
2023-05-02T15:54:46.891Z,20.50
2023-05-02T15:57:32.356Z,20.50
2023-05-02T16:00:17.967Z,20.40
2023-05-02T16:03:04.122Z,20.20
2023-05-02T16:05:52.746Z,20.20
2023-05-02T16:08:38.214Z,20.10
2023-05-02T16:11:23.594Z,20.10
2023-05-02T16:14:09.318Z,20.40
2023-05-02T16:16:56.020Z,20.80
2023-05-02T16:19:41.376Z,20.60
2023-05-02T16:22:28.214Z,20.20
2023-05-02T16:25:15.016Z,20.10
2023-05-02T16:28:01.009Z,19.90
2023-05-02T16:30:46.323Z,19.70
2023-05-02T16:33:31.624Z,19.40
2023-05-02T16:36:17.127Z,19.20
2023-05-02T16:39:02.350Z,18.90
2023-05-02T16:41:49.245Z,19.00
2023-05-02T16:44:34.697Z,19.00
2023-05-02T16:47:19.956Z,18.90
2023-05-02T16:50:06.215Z,18.90
2023-05-02T16:52:51.925Z,18.90
2023-05-02T16:55:37.250Z,18.90
2023-05-02T16:58:24.643Z,18.90
2023-05-02T17:01:10.304Z,18.80
2023-05-02T17:03:55.690Z,18.80
2023-05-02T17:06:41.242Z,18.60
2023-05-02T17:09:26.840Z,18.60
2023-05-02T17:12:12.783Z,18.40
2023-05-02T17:14:58.590Z,18.30
2023-05-02T17:17:44.246Z,18.20
2023-05-02T17:20:29.257Z,18.20
2023-05-02T17:23:14.679Z,18.20
2023-05-02T17:26:00.541Z,18.10
2023-05-02T17:28:46.103Z,18.10
2023-05-02T17:31:31.230Z,18.10
2023-05-02T17:34:16.568Z,18.10
2023-05-02T17:37:02.254Z,17.80
2023-05-02T17:39:47.897Z,17.60
2023-05-02T17:42:33.108Z,17.40
2023-05-02T17:45:18.556Z,17.50
2023-05-02T17:48:04.300Z,17.50
2023-05-02T17:50:50.947Z,17.50
2023-05-02T17:53:36.644Z,17.40
2023-05-02T17:56:22.396Z,17.30
2023-05-02T17:59:08.017Z,17.30
2023-05-02T18:01:53.554Z,17.30
2023-05-02T18:04:38.883Z,17.30
2023-05-02T18:07:24.340Z,17.30
2023-05-02T18:10:09.917Z,17.40
2023-05-02T18:12:55.426Z,17.30
2023-05-02T18:15:41.297Z,17.20
2023-05-02T18:18:26.484Z,17.20
2023-05-02T18:21:11.969Z,17.10
2023-05-02T18:23:57.566Z,17.10
2023-05-02T18:26:42.945Z,17.10
2023-05-02T18:29:28.219Z,17.00
2023-05-02T18:32:14.455Z,17.00
2023-05-02T18:35:00.452Z,17.00
2023-05-02T18:37:46.433Z,16.90
2023-05-02T18:40:32.364Z,16.90
2023-05-02T18:43:17.628Z,16.90
2023-05-02T18:46:03.271Z,16.80
2023-05-02T18:48:48.872Z,16.90
2023-05-02T18:51:33.979Z,16.90
2023-05-02T18:54:19.692Z,16.90
2023-05-02T18:57:05.063Z,16.70
2023-05-02T18:59:50.301Z,16.60
2023-05-02T19:02:35.690Z,16.60
2023-05-02T19:05:21.198Z,16.60
2023-05-02T19:08:07.640Z,16.60
2023-05-02T19:10:52.782Z,16.50
2023-05-02T19:13:38.712Z,16.40
2023-05-02T19:16:25.640Z,16.20
2023-05-02T19:19:10.886Z,15.90
2023-05-02T19:21:56.573Z,15.90
2023-05-02T19:24:41.444Z,15.80
2023-05-02T19:27:27.057Z,15.80
2023-05-02T19:30:13.640Z,15.70
2023-05-02T19:32:59.662Z,15.70
2023-05-02T19:35:45.205Z,15.80
2023-05-02T19:38:30.615Z,15.70
2023-05-02T19:41:17.155Z,15.70
2023-05-02T19:44:02.594Z,15.60
2023-05-02T19:46:48.273Z,15.60
2023-05-02T19:49:33.610Z,15.50
2023-05-02T19:52:19.046Z,15.30
2023-05-02T19:55:05.277Z,15.40
2023-05-02T19:57:50.346Z,15.30
2023-05-02T20:00:36.011Z,15.40
2023-05-02T20:03:22.283Z,15.30
2023-05-02T20:06:07.844Z,15.30
2023-05-02T20:08:53.209Z,15.10
2023-05-02T20:11:38.774Z,15.10
2023-05-02T20:14:24.097Z,15.00
2023-05-02T20:17:09.508Z,15.00
2023-05-02T20:19:54.793Z,14.90
2023-05-02T20:22:40.549Z,14.90
2023-05-02T20:25:25.820Z,14.70
2023-05-02T20:28:11.243Z,14.70
2023-05-02T20:30:56.478Z,14.80
2023-05-02T20:33:45.807Z,14.80
2023-05-02T20:36:32.246Z,14.90
2023-05-02T20:39:20.780Z,14.80
2023-05-02T20:42:06.118Z,14.80
2023-05-02T20:44:58.465Z,14.80
2023-05-02T20:47:43.766Z,14.70
2023-05-02T20:50:29.243Z,14.70
2023-05-02T20:53:14.485Z,14.60
2023-05-02T20:56:00.154Z,14.60
2023-05-02T20:58:45.479Z,14.60
2023-05-02T21:01:30.916Z,14.50
2023-05-02T21:04:16.603Z,14.60
2023-05-02T21:07:03.095Z,14.50
2023-05-02T21:09:48.668Z,14.50
2023-05-02T21:12:33.901Z,14.50
2023-05-02T21:15:19.321Z,14.50
2023-05-02T21:18:05.270Z,14.40
2023-05-02T21:20:50.746Z,14.40
2023-05-02T21:23:36.329Z,14.40
2023-05-02T21:26:21.504Z,14.30
2023-05-02T21:29:07.339Z,14.20
2023-05-02T21:31:54.681Z,14.20
2023-05-02T21:34:40.297Z,14.00
2023-05-02T21:37:26.018Z,13.90
2023-05-02T21:40:11.960Z,13.80
2023-05-02T21:42:57.250Z,13.90
2023-05-02T21:45:50.122Z,13.80
2023-05-02T21:48:35.054Z,13.80
2023-05-02T21:51:20.551Z,13.90
2023-05-02T21:54:07.291Z,13.80
2023-05-02T21:56:55.812Z,13.80
2023-05-02T21:59:43.108Z,13.80
2023-05-02T22:02:28.627Z,13.80
2023-05-02T22:05:14.304Z,13.80
2023-05-02T22:08:00.730Z,13.70
2023-05-02T22:10:46.000Z,13.60
2023-05-02T22:13:31.478Z,13.60
2023-05-02T22:16:17.220Z,13.50
2023-05-02T22:19:02.357Z,13.50
2023-05-02T22:21:47.695Z,13.50
2023-05-02T22:24:33.564Z,13.50
2023-05-02T22:27:19.126Z,13.40
2023-05-02T22:30:05.393Z,13.40
2023-05-02T22:32:50.473Z,13.30
2023-05-02T22:35:39.132Z,13.30
2023-05-02T22:38:24.184Z,13.30
2023-05-02T22:41:09.851Z,13.20
2023-05-02T22:43:54.952Z,13.20
2023-05-02T22:46:40.477Z,13.10
2023-05-02T22:49:28.436Z,13.00
2023-05-02T22:52:14.347Z,13.10
2023-05-02T22:55:00.347Z,13.10
2023-05-02T22:57:45.884Z,13.10
2023-05-02T23:00:31.167Z,13.10
2023-05-02T23:03:16.783Z,13.10
2023-05-02T23:06:02.059Z,13.00
2023-05-02T23:08:47.346Z,13.00
2023-05-02T23:11:32.539Z,13.00
2023-05-02T23:14:20.570Z,13.00
2023-05-02T23:17:05.940Z,12.80
2023-05-02T23:19:51.283Z,12.80
2023-05-02T23:22:39.466Z,12.80
2023-05-02T23:25:27.307Z,12.80
2023-05-02T23:28:12.834Z,12.90
2023-05-02T23:30:58.482Z,12.90
2023-05-02T23:33:43.946Z,12.80
2023-05-02T23:36:29.142Z,12.70
2023-05-02T23:39:14.679Z,12.70
2023-05-02T23:42:00.728Z,12.70
2023-05-02T23:44:47.053Z,12.70
2023-05-02T23:47:32.133Z,12.70
2023-05-02T23:50:18.312Z,12.70
2023-05-02T23:53:03.396Z,12.60
2023-05-02T23:55:48.730Z,12.50
2023-05-02T23:58:34.145Z,12.50
